Heidmar Brazos — V7FG6 — position and weather

sailwx.info

Track history (hours):
 
Tides and Currents Weather Stations Pressure Air Temp Water Temp Dewpoint Dewpoint Depression Visibility Wind Speed Wind Dir Waves Ship Positions

Heidmar Brazos

Last reported at 2017-Sep-02 16:22 UTC. Time now 2017-Sep-24 21:24 UTC.
Position N 49°33' W 004°18'.
Warning: this ship's position is 22 days out of date.

Type: Ship (hazmat cat D). MMSI: 538005590.

Date/timePositionNaut miles runAvg speedWind from/ knotsBaromVisibWave heightAir tempDewpointWater temp
2017-Sep-02 16:22N 49°33' W 004°18'916.9
2017-Sep-02 15:50N 49°38' W 004°06'616.7
2017-Sep-02 15:30N 49°40' W 003°58'816.5
2017-Sep-02 15:00N 49°43' W 003°46'816.8
2017-Sep-02 14:31N 49°47' W 003°34'816.9
2017-Sep-02 14:01N 49°50' W 003°23'917.4
2017-Sep-02 13:31N 49°55' W 003°11'917.9
2017-Sep-02 13:01N 49°59' W 002°58'918.5
2017-Sep-02 12:30N 50°02' W 002°45'2719.1
2017-Sep-02 11:07N 50°05' W 002°04'219.4
2017-Sep-02 11:00N 50°04' W 002°01'1019.4
2017-Sep-02 10:31N 49°60' W 001°47'1019.5
2017-Sep-02 10:01N 49°55' W 001°34'918.8
2017-Sep-02 09:31N 49°51' W 001°21'918.9
2017-Sep-02 09:01N 49°47' W 001°08'2917.7
2017-Sep-02 07:22N 49°34' W 000°27'616.9
2017-Sep-02 07:00N 49°32' W 000°18'816.2
2017-Sep-02 06:31N 49°30' W 000°07'510.3
2017-Sep-02 06:00N 49°28' E 000°01'611.6
2017-Sep-02 05:30N 49°26' E 000°09'4 8.9
2017-Sep-02 05:00N 49°26' E 000°16'5 9.6
2017-Sep-02 04:31N 49°27' E 000°23'  
2017-Aug-28 12:10N 49°29' E 000°28'2 9.9
2017-Aug-28 12:00N 49°28' E 000°26'713.7
2017-Aug-28 11:30N 49°26' E 000°16'612.9
2017-Aug-28 11:00N 49°26' E 000°06'510.8
2017-Aug-28 10:30N 49°28' W 000°01'4 7.1
2017-Aug-28 10:00N 49°29' W 000°07'4 7.1
2017-Aug-28 09:30N 49°30' W 000°12'5 9.0
2017-Aug-28 09:00N 49°32' W 000°19'5 9.6
2017-Aug-28 08:30N 49°34' W 000°25'4 8.0
2017-Aug-28 07:59N 49°36' W 000°30'5 9.9
2017-Aug-28 07:30N 49°41' W 000°30'510.0
2017-Aug-28 07:00N 49°46' W 000°29'510.5
2017-Aug-28 06:30N 49°51' W 000°28'510.9
2017-Aug-28 06:00N 49°57' W 000°25'510.8
2017-Aug-28 05:30N 50°02' W 000°22'510.7
2017-Aug-28 05:00N 50°07' W 000°20'510.5
2017-Aug-28 04:30N 50°12' W 000°18'510.7
2017-Aug-28 04:00N 50°17' W 000°15'510.5
2017-Aug-28 03:30N 50°22' W 000°12'510.0
2017-Aug-28 03:00N 50°26' W 000°10'0 0.6
2017-Aug-28 02:30N 50°27' W 000°09'0 0.6
2017-Aug-28 02:00N 50°26' W 000°09'3 7.0
2017-Aug-28 01:30N 50°28' W 000°05'4 8.8
2017-Aug-28 01:00N 50°30' E 000°02'4 8.6
2017-Aug-28 00:30N 50°31' E 000°08'4 8.6
2017-Aug-28 00:00N 50°32' E 000°15'4 8.8
2017-Aug-27 23:30N 50°34' E 000°21'5 9.4
2017-Aug-27 23:00N 50°35' E 000°28'510.0
2017-Aug-27 22:30N 50°37' E 000°36'510.7
2017-Aug-27 22:00N 50°40' E 000°42'611.3
2017-Aug-27 21:30N 50°44' E 000°49'611.6
2017-Aug-27 21:00N 50°47' E 000°56'611.7
2017-Aug-27 20:30N 50°51' E 001°03'611.6
2017-Aug-27 20:00N 50°55' E 001°10'611.2
2017-Aug-27 19:30N 50°59' E 001°17'510.7
2017-Aug-27 19:00N 51°02' E 001°24'510.1
2017-Aug-27 18:30N 51°05' E 001°30'5 9.2
2017-Aug-27 18:00N 51°08' E 001°35'4 8.7
2017-Aug-27 17:30N 51°11' E 001°41'4 8.6
2017-Aug-27 17:00N 51°14' E 001°46'4 8.5
2017-Aug-27 16:30N 51°17' E 001°50'4 8.7
2017-Aug-27 16:00N 51°21' E 001°53'5 9.1
2017-Aug-27 15:30N 51°25' E 001°57'5 9.9
2017-Aug-27 15:00N 51°29' E 002°01'510.5
2017-Aug-27 14:30N 51°33' E 002°06'611.0
2017-Aug-27 14:00N 51°37' E 002°12'611.5
2017-Aug-27 13:30N 51°42' E 002°18'611.9
2017-Aug-27 13:00N 51°46' E 002°25'612.1
2017-Aug-27 12:30N 51°51' E 002°31'611.9
2017-Aug-27 12:00N 51°55' E 002°38'612.1
2017-Aug-27 11:30N 51°60' E 002°44'611.0
2017-Aug-27 11:00N 52°02' E 002°52'611.1
2017-Aug-27 10:30N 52°03' E 003°01'510.9
2017-Aug-27 10:00N 52°03' E 003°10'510.8
2017-Aug-27 09:30N 52°03' E 003°19'510.6
2017-Aug-27 09:00N 52°03' E 003°28'510.5
2017-Aug-27 08:30N 52°04' E 003°36'510.3
2017-Aug-27 08:00N 52°04' E 003°44'510.2
2017-Aug-27 07:30N 52°03' E 003°53'5 9.3
2017-Aug-27 07:00N 52°01' E 003°59'5 9.9
2017-Aug-27 06:30N 51°59' E 004°07'4 8.1
2017-Aug-27 06:00N 51°56' E 004°12'4 7.3
2017-Aug-27 05:30N 51°54' E 004°17'4 8.0
2017-Aug-27 05:00N 51°54' E 004°23'2 3.4
2017-Aug-27 04:30N 51°53' E 004°25'0 0.0
2017-Aug-27 04:00N 51°53' E 004°25'0 0.0
2017-Aug-27 03:30N 51°53' E 004°25'0 0.0
2017-Aug-27 03:01N 51°53' E 004°25'0 0.0
2017-Aug-27 02:31N 51°53' E 004°25'0 0.0
2017-Aug-27 02:01N 51°53' E 004°25'0 0.0
2017-Aug-27 01:31N 51°53' E 004°25'0 0.0
2017-Aug-27 01:01N 51°53' E 004°25'0 0.0
2017-Aug-27 00:30N 51°53' E 004°25'0 0.0
2017-Aug-27 00:01N 51°53' E 004°25'0 0.0
2017-Aug-26 23:31N 51°53' E 004°25'0 0.0
2017-Aug-26 23:01N 51°53' E 004°25'0 0.0
2017-Aug-26 22:31N 51°53' E 004°25'0 0.0
2017-Aug-26 22:01N 51°53' E 004°25'0 0.0
2017-Aug-26 21:31N 51°53' E 004°25'0 0.0
2017-Aug-26 21:01N 51°53' E 004°25'0 0.0
2017-Aug-26 20:31N 51°53' E 004°25'0 0.0
2017-Aug-26 20:00N 51°53' E 004°25'0 0.0
2017-Aug-26 19:31N 51°53' E 004°25'0 0.0
2017-Aug-26 19:00N 51°53' E 004°25'0 0.0
2017-Aug-26 18:31N 51°53' E 004°25'0 0.0
2017-Aug-26 18:01N 51°53' E 004°25'0 0.0
2017-Aug-26 17:31N 51°53' E 004°25'0 0.0
2017-Aug-26 17:01N 51°53' E 004°25'0 0.0
2017-Aug-26 16:31N 51°53' E 004°25'0 0.0
2017-Aug-26 16:01N 51°53' E 004°25'0 0.0
2017-Aug-26 15:31N 51°53' E 004°25'0 0.0
2017-Aug-26 15:01N 51°53' E 004°25'0 0.0
2017-Aug-26 14:01N 51°53' E 004°25'0 0.0
2017-Aug-26 13:31N 51°53' E 004°25'0 0.0
2017-Aug-26 13:01N 51°53' E 004°25'0 0.0
2017-Aug-26 12:31N 51°53' E 004°25'0 0.0
2017-Aug-26 12:01N 51°53' E 004°25'0 0.0
2017-Aug-26 11:31N 51°53' E 004°25'0 0.0
2017-Aug-26 11:01N 51°53' E 004°25'0 0.0
2017-Aug-26 10:31N 51°53' E 004°25'0 0.0
2017-Aug-26 10:01N 51°53' E 004°25'0 0.0
2017-Aug-26 09:31N 51°53' E 004°25'0 0.0
2017-Aug-26 09:01N 51°53' E 004°25'0 0.0
2017-Aug-26 08:31N 51°53' E 004°25'0 0.0
2017-Aug-26 08:01N 51°53' E 004°25'0 0.0
2017-Aug-26 07:31N 51°53' E 004°25'0 0.0
2017-Aug-26 07:01N 51°53' E 004°25'0 0.8
2017-Aug-26 06:31N 51°53' E 004°25'2 4.5
2017-Aug-26 06:00N 51°54' E 004°21'4 8.8
2017-Aug-26 05:31N 51°55' E 004°14'612.1
2017-Aug-26 05:01N 51°59' E 004°07'612.6
2017-Aug-26 04:31N 51°60' E 003°57'611.9
2017-Aug-26 04:01N 51°59' E 003°47'4 7.8
2017-Aug-26 03:30N 51°56' E 003°43'0 0.2
2017-Aug-26 03:00N 51°56' E 003°43'0 0.2
2017-Aug-26 02:30N 51°56' E 003°42'0 0.0
2017-Aug-26 02:00N 51°56' E 003°42'0 0.1
2017-Aug-26 01:30N 51°56' E 003°42'0 0.0
2017-Aug-26 01:00N 51°56' E 003°42'0 0.0
2017-Aug-26 00:30N 51°56' E 003°42'0 0.0
2017-Aug-26 00:00N 51°56' E 003°42'0 0.0
2017-Aug-25 23:30N 51°56' E 003°42'0 0.0
2017-Aug-25 23:00N 51°56' E 003°43'0 0.0
2017-Aug-25 22:30N 51°56' E 003°42'0 0.0
2017-Aug-25 22:00N 51°56' E 003°43'0 0.0
2017-Aug-25 21:30N 51°56' E 003°43'0 0.0
2017-Aug-25 21:00N 51°56' E 003°43'0 0.0
2017-Aug-25 20:30N 51°56' E 003°43'0 0.0
2017-Aug-25 20:00N 51°56' E 003°42'0 0.1
2017-Aug-25 19:30N 51°56' E 003°42'0 0.1
2017-Aug-25 19:00N 51°56' E 003°43'0 0.2
2017-Aug-25 18:30N 51°56' E 003°43'0 0.0
2017-Aug-25 18:00N 51°56' E 003°43'0 0.0
2017-Aug-25 17:30N 51°56' E 003°43'0 0.0
2017-Aug-25 17:00N 51°56' E 003°43'0 0.0
2017-Aug-25 16:30N 51°56' E 003°43'0 0.0
2017-Aug-25 16:00N 51°56' E 003°43'0 0.0
2017-Aug-25 15:30N 51°56' E 003°43'0 0.0
2017-Aug-25 15:00N 51°56' E 003°43'0 0.2
2017-Aug-25 14:00N 51°56' E 003°42'0 0.1
2017-Aug-25 13:30N 51°56' E 003°43'0 0.0
2017-Aug-25 13:00N 51°56' E 003°43'0 0.0
2017-Aug-25 12:30N 51°56' E 003°43'0 0.0
2017-Aug-25 12:00N 51°56' E 003°43'0 0.0
2017-Aug-25 11:30N 51°56' E 003°43'0 0.0
2017-Aug-25 11:00N 51°56' E 003°43'0 0.0
2017-Aug-25 10:30N 51°56' E 003°43'0 0.0
2017-Aug-25 10:00N 51°56' E 003°43'0 0.1
2017-Aug-25 09:30N 51°56' E 003°43'0 0.1
2017-Aug-25 09:00N 51°56' E 003°43'0 0.3
2017-Aug-25 08:30N 51°56' E 003°43'0 0.1
2017-Aug-25 08:00N 51°56' E 003°43'0 0.1
2017-Aug-25 07:30N 51°56' E 003°43'0 0.0
2017-Aug-25 07:00N 51°56' E 003°43'0 0.0
2017-Aug-25 06:30N 51°56' E 003°43'0 0.0
2017-Aug-25 06:00N 51°56' E 003°43'0 0.0
2017-Aug-25 05:30N 51°56' E 003°43'0 0.0
2017-Aug-25 05:00N 51°56' E 003°43'0 0.0
2017-Aug-25 04:30N 51°56' E 003°43'0 0.0
2017-Aug-25 04:00N 51°56' E 003°43'0 0.0
2017-Aug-25 03:30N 51°56' E 003°43'0 0.0
2017-Aug-25 03:00N 51°56' E 003°43'0 0.1
2017-Aug-25 02:29N 51°56' E 003°43'0 0.1
2017-Aug-25 02:00N 51°56' E 003°43'0 0.2
2017-Aug-25 01:30N 51°56' E 003°43'0 0.1
2017-Aug-25 01:00N 51°56' E 003°43'0 0.1
2017-Aug-25 00:30N 51°56' E 003°43'0 0.0
2017-Aug-25 00:00N 51°56' E 003°43'0 0.0
2017-Aug-24 23:30N 51°56' E 003°43'0 0.0
2017-Aug-24 23:00N 51°56' E 003°43'0 0.0
2017-Aug-24 22:30N 51°56' E 003°43'0 0.0
2017-Aug-24 22:00N 51°56' E 003°43'0 0.1
2017-Aug-24 21:30N 51°56' E 003°43'0 0.2
2017-Aug-24 21:00N 51°56' E 003°43'0 0.2
2017-Aug-24 20:30N 51°56' E 003°43'0 0.1
2017-Aug-24 20:00N 51°56' E 003°43'1 1.4
2017-Aug-24 19:30N 51°56' E 003°42'611.5
2017-Aug-24 19:00N 51°56' E 003°33'713.1
2017-Aug-24 18:30N 51°54' E 003°22'611.5
2017-Aug-24 17:56N 51°53' E 003°12'512.1
2017-Aug-24 17:30N 51°51' E 003°04'612.4
2017-Aug-24 17:00N 51°49' E 002°54'612.6
2017-Aug-24 16:30N 51°48' E 002°45'612.8
2017-Aug-24 16:00N 51°44' E 002°35'713.5
2017-Aug-24 15:29N 51°39' E 002°28'613.6
2017-Aug-24 15:00N 51°34' E 002°21'713.7
2017-Aug-24 14:30N 51°29' E 002°15'713.2
2017-Aug-24 14:00N 51°22' E 002°11'713.4
2017-Aug-24 13:30N 51°16' E 002°07'713.1
2017-Aug-24 13:00N 51°12' E 001°59'713.2
2017-Aug-24 12:30N 51°09' E 001°50'613.0
2017-Aug-24 12:01N 51°05' E 001°42'611.8
2017-Aug-24 11:30N 51°00' E 001°36'611.3
2017-Aug-24 11:01N 50°56' E 001°29'710.1
2017-Aug-24 10:16N 50°49' E 001°24'72 9.4
2017-Aug-24 02:32N 50°16' W 000°17'0 9.5
2017-Aug-24 02:30N 50°16' W 000°17'5 9.9
2017-Aug-24 01:58N 50°15' W 000°25'510.2
2017-Aug-24 01:30N 50°13' W 000°32'510.7
2017-Aug-24 01:00N 50°12' W 000°40'611.5
2017-Aug-24 00:28N 50°10' W 000°50'612.3
2017-Aug-24 00:00N 50°09' W 000°58'713.3
2017-Aug-23 23:30N 50°07' W 001°08'714.0
2017-Aug-23 23:01N 50°06' W 001°19'714.6
2017-Aug-23 22:30N 50°04' W 001°30'815.2
2017-Aug-23 22:00N 50°01' W 001°41'815.8
2017-Aug-23 21:31N 49°59' W 001°53'815.9
2017-Aug-23 21:00N 49°57' W 002°05'1315.3
2017-Aug-23 20:09N 49°54' W 002°24'214.7
2017-Aug-23 20:00N 49°53' W 002°28'3513.5
2017-Aug-23 17:26N 49°40' W 003°17'713.6
2017-Aug-23 16:55N 49°36' W 003°27'613.5
2017-Aug-23 16:30N 49°33' W 003°34'  
Track history (hours):
 
Tides and Currents Weather Stations Pressure Air Temp Water Temp Dewpoint Dewpoint Depression Visibility Wind Speed Wind Dir Waves Ship Positions

Heidmar Brazos

Last reported at 2017-Sep-02 16:22 UTC. Time now 2017-Sep-24 21:24 UTC.
Position N 49°33' W 004°18'.
Warning: this ship's position is 22 days out of date.

Type: Ship (hazmat cat D). MMSI: 538005590.

Date/timePositionNaut miles runAvg speedWind from/ knotsBaromVisibWave heightAir tempDewpointWater temp
2017-Sep-02 16:22N 49°33' W 004°18'916.9
2017-Sep-02 15:50N 49°38' W 004°06'616.7
2017-Sep-02 15:30N 49°40' W 003°58'816.5
2017-Sep-02 15:00N 49°43' W 003°46'816.8
2017-Sep-02 14:31N 49°47' W 003°34'816.9
2017-Sep-02 14:01N 49°50' W 003°23'917.4
2017-Sep-02 13:31N 49°55' W 003°11'917.9
2017-Sep-02 13:01N 49°59' W 002°58'918.5
2017-Sep-02 12:30N 50°02' W 002°45'2719.1
2017-Sep-02 11:07N 50°05' W 002°04'219.4
2017-Sep-02 11:00N 50°04' W 002°01'1019.4
2017-Sep-02 10:31N 49°60' W 001°47'1019.5
2017-Sep-02 10:01N 49°55' W 001°34'918.8
2017-Sep-02 09:31N 49°51' W 001°21'918.9
2017-Sep-02 09:01N 49°47' W 001°08'2917.7
2017-Sep-02 07:22N 49°34' W 000°27'616.9
2017-Sep-02 07:00N 49°32' W 000°18'816.2
2017-Sep-02 06:31N 49°30' W 000°07'510.3
2017-Sep-02 06:00N 49°28' E 000°01'611.6
2017-Sep-02 05:30N 49°26' E 000°09'4 8.9
2017-Sep-02 05:00N 49°26' E 000°16'5 9.6
2017-Sep-02 04:31N 49°27' E 000°23'  
2017-Aug-28 12:10N 49°29' E 000°28'2 9.9
2017-Aug-28 12:00N 49°28' E 000°26'713.7
2017-Aug-28 11:30N 49°26' E 000°16'612.9
2017-Aug-28 11:00N 49°26' E 000°06'510.8
2017-Aug-28 10:30N 49°28' W 000°01'4 7.1
2017-Aug-28 10:00N 49°29' W 000°07'4 7.1
2017-Aug-28 09:30N 49°30' W 000°12'5 9.0
2017-Aug-28 09:00N 49°32' W 000°19'5 9.6
2017-Aug-28 08:30N 49°34' W 000°25'4 8.0
2017-Aug-28 07:59N 49°36' W 000°30'5 9.9
2017-Aug-28 07:30N 49°41' W 000°30'510.0
2017-Aug-28 07:00N 49°46' W 000°29'510.5
2017-Aug-28 06:30N 49°51' W 000°28'510.9
2017-Aug-28 06:00N 49°57' W 000°25'510.8
2017-Aug-28 05:30N 50°02' W 000°22'510.7
2017-Aug-28 05:00N 50°07' W 000°20'510.5
2017-Aug-28 04:30N 50°12' W 000°18'510.7
2017-Aug-28 04:00N 50°17' W 000°15'510.5
2017-Aug-28 03:30N 50°22' W 000°12'510.0
2017-Aug-28 03:00N 50°26' W 000°10'0 0.6
2017-Aug-28 02:30N 50°27' W 000°09'0 0.6
2017-Aug-28 02:00N 50°26' W 000°09'3 7.0
2017-Aug-28 01:30N 50°28' W 000°05'4 8.8
2017-Aug-28 01:00N 50°30' E 000°02'4 8.6
2017-Aug-28 00:30N 50°31' E 000°08'4 8.6
2017-Aug-28 00:00N 50°32' E 000°15'4 8.8
2017-Aug-27 23:30N 50°34' E 000°21'5 9.4
2017-Aug-27 23:00N 50°35' E 000°28'510.0
2017-Aug-27 22:30N 50°37' E 000°36'510.7
2017-Aug-27 22:00N 50°40' E 000°42'611.3
2017-Aug-27 21:30N 50°44' E 000°49'611.6
2017-Aug-27 21:00N 50°47' E 000°56'611.7
2017-Aug-27 20:30N 50°51' E 001°03'611.6
2017-Aug-27 20:00N 50°55' E 001°10'611.2
2017-Aug-27 19:30N 50°59' E 001°17'510.7
2017-Aug-27 19:00N 51°02' E 001°24'510.1
2017-Aug-27 18:30N 51°05' E 001°30'5 9.2
2017-Aug-27 18:00N 51°08' E 001°35'4 8.7
2017-Aug-27 17:30N 51°11' E 001°41'4 8.6
2017-Aug-27 17:00N 51°14' E 001°46'4 8.5
2017-Aug-27 16:30N 51°17' E 001°50'4 8.7
2017-Aug-27 16:00N 51°21' E 001°53'5 9.1
2017-Aug-27 15:30N 51°25' E 001°57'5 9.9
2017-Aug-27 15:00N 51°29' E 002°01'510.5
2017-Aug-27 14:30N 51°33' E 002°06'611.0
2017-Aug-27 14:00N 51°37' E 002°12'611.5
2017-Aug-27 13:30N 51°42' E 002°18'611.9
2017-Aug-27 13:00N 51°46' E 002°25'612.1
2017-Aug-27 12:30N 51°51' E 002°31'611.9
2017-Aug-27 12:00N 51°55' E 002°38'612.1
2017-Aug-27 11:30N 51°60' E 002°44'611.0
2017-Aug-27 11:00N 52°02' E 002°52'611.1
2017-Aug-27 10:30N 52°03' E 003°01'510.9
2017-Aug-27 10:00N 52°03' E 003°10'510.8
2017-Aug-27 09:30N 52°03' E 003°19'510.6
2017-Aug-27 09:00N 52°03' E 003°28'510.5
2017-Aug-27 08:30N 52°04' E 003°36'510.3
2017-Aug-27 08:00N 52°04' E 003°44'510.2
2017-Aug-27 07:30N 52°03' E 003°53'5 9.3
2017-Aug-27 07:00N 52°01' E 003°59'5 9.9
2017-Aug-27 06:30N 51°59' E 004°07'4 8.1
2017-Aug-27 06:00N 51°56' E 004°12'4 7.3
2017-Aug-27 05:30N 51°54' E 004°17'4 8.0
2017-Aug-27 05:00N 51°54' E 004°23'2 3.4
2017-Aug-27 04:30N 51°53' E 004°25'0 0.0
2017-Aug-27 04:00N 51°53' E 004°25'0 0.0
2017-Aug-27 03:30N 51°53' E 004°25'0 0.0
2017-Aug-27 03:01N 51°53' E 004°25'0 0.0
2017-Aug-27 02:31N 51°53' E 004°25'0 0.0
2017-Aug-27 02:01N 51°53' E 004°25'0 0.0
2017-Aug-27 01:31N 51°53' E 004°25'0 0.0
2017-Aug-27 01:01N 51°53' E 004°25'0 0.0
2017-Aug-27 00:30N 51°53' E 004°25'0 0.0
2017-Aug-27 00:01N 51°53' E 004°25'0 0.0
2017-Aug-26 23:31N 51°53' E 004°25'0 0.0
2017-Aug-26 23:01N 51°53' E 004°25'0 0.0
2017-Aug-26 22:31N 51°53' E 004°25'0 0.0
2017-Aug-26 22:01N 51°53' E 004°25'0 0.0
2017-Aug-26 21:31N 51°53' E 004°25'0 0.0
2017-Aug-26 21:01N 51°53' E 004°25'0 0.0
2017-Aug-26 20:31N 51°53' E 004°25'0 0.0
2017-Aug-26 20:00N 51°53' E 004°25'0 0.0
2017-Aug-26 19:31N 51°53' E 004°25'0 0.0
2017-Aug-26 19:00N 51°53' E 004°25'0 0.0
2017-Aug-26 18:31N 51°53' E 004°25'0 0.0
2017-Aug-26 18:01N 51°53' E 004°25'0 0.0
2017-Aug-26 17:31N 51°53' E 004°25'0 0.0
2017-Aug-26 17:01N 51°53' E 004°25'0 0.0
2017-Aug-26 16:31N 51°53' E 004°25'0 0.0
2017-Aug-26 16:01N 51°53' E 004°25'0 0.0
2017-Aug-26 15:31N 51°53' E 004°25'0 0.0
2017-Aug-26 15:01N 51°53' E 004°25'0 0.0
2017-Aug-26 14:01N 51°53' E 004°25'0 0.0
2017-Aug-26 13:31N 51°53' E 004°25'0 0.0
2017-Aug-26 13:01N 51°53' E 004°25'0 0.0
2017-Aug-26 12:31N 51°53' E 004°25'0 0.0
2017-Aug-26 12:01N 51°53' E 004°25'0 0.0
2017-Aug-26 11:31N 51°53' E 004°25'0 0.0
2017-Aug-26 11:01N 51°53' E 004°25'0 0.0
2017-Aug-26 10:31N 51°53' E 004°25'0 0.0
2017-Aug-26 10:01N 51°53' E 004°25'0 0.0
2017-Aug-26 09:31N 51°53' E 004°25'0 0.0
2017-Aug-26 09:01N 51°53' E 004°25'0 0.0
2017-Aug-26 08:31N 51°53' E 004°25'0 0.0
2017-Aug-26 08:01N 51°53' E 004°25'0 0.0
2017-Aug-26 07:31N 51°53' E 004°25'0 0.0
2017-Aug-26 07:01N 51°53' E 004°25'0 0.8
2017-Aug-26 06:31N 51°53' E 004°25'2 4.5
2017-Aug-26 06:00N 51°54' E 004°21'4 8.8
2017-Aug-26 05:31N 51°55' E 004°14'612.1
2017-Aug-26 05:01N 51°59' E 004°07'612.6
2017-Aug-26 04:31N 51°60' E 003°57'611.9
2017-Aug-26 04:01N 51°59' E 003°47'4 7.8
2017-Aug-26 03:30N 51°56' E 003°43'0 0.2
2017-Aug-26 03:00N 51°56' E 003°43'0 0.2
2017-Aug-26 02:30N 51°56' E 003°42'0 0.0
2017-Aug-26 02:00N 51°56' E 003°42'0 0.1
2017-Aug-26 01:30N 51°56' E 003°42'0 0.0
2017-Aug-26 01:00N 51°56' E 003°42'0 0.0
2017-Aug-26 00:30N 51°56' E 003°42'0 0.0
2017-Aug-26 00:00N 51°56' E 003°42'0 0.0
2017-Aug-25 23:30N 51°56' E 003°42'0 0.0
2017-Aug-25 23:00N 51°56' E 003°43'0 0.0
2017-Aug-25 22:30N 51°56' E 003°42'0 0.0
2017-Aug-25 22:00N 51°56' E 003°43'0 0.0
2017-Aug-25 21:30N 51°56' E 003°43'0 0.0
2017-Aug-25 21:00N 51°56' E 003°43'0 0.0
2017-Aug-25 20:30N 51°56' E 003°43'0 0.0
2017-Aug-25 20:00N 51°56' E 003°42'0 0.1
2017-Aug-25 19:30N 51°56' E 003°42'0 0.1
2017-Aug-25 19:00N 51°56' E 003°43'0 0.2
2017-Aug-25 18:30N 51°56' E 003°43'0 0.0
2017-Aug-25 18:00N 51°56' E 003°43'0 0.0
2017-Aug-25 17:30N 51°56' E 003°43'0 0.0
2017-Aug-25 17:00N 51°56' E 003°43'0 0.0
2017-Aug-25 16:30N 51°56' E 003°43'0 0.0
2017-Aug-25 16:00N 51°56' E 003°43'0 0.0
2017-Aug-25 15:30N 51°56' E 003°43'0 0.0
2017-Aug-25 15:00N 51°56' E 003°43'0 0.2
2017-Aug-25 14:00N 51°56' E 003°42'0 0.1
2017-Aug-25 13:30N 51°56' E 003°43'0 0.0
2017-Aug-25 13:00N 51°56' E 003°43'0 0.0
2017-Aug-25 12:30N 51°56' E 003°43'0 0.0
2017-Aug-25 12:00N 51°56' E 003°43'0 0.0
2017-Aug-25 11:30N 51°56' E 003°43'0 0.0
2017-Aug-25 11:00N 51°56' E 003°43'0 0.0
2017-Aug-25 10:30N 51°56' E 003°43'0 0.0
2017-Aug-25 10:00N 51°56' E 003°43'0 0.1
2017-Aug-25 09:30N 51°56' E 003°43'0 0.1
2017-Aug-25 09:00N 51°56' E 003°43'0 0.3
2017-Aug-25 08:30N 51°56' E 003°43'0 0.1
2017-Aug-25 08:00N 51°56' E 003°43'0 0.1
2017-Aug-25 07:30N 51°56' E 003°43'0 0.0
2017-Aug-25 07:00N 51°56' E 003°43'0 0.0
2017-Aug-25 06:30N 51°56' E 003°43'0 0.0
2017-Aug-25 06:00N 51°56' E 003°43'0 0.0
2017-Aug-25 05:30N 51°56' E 003°43'0 0.0
2017-Aug-25 05:00N 51°56' E 003°43'0 0.0
2017-Aug-25 04:30N 51°56' E 003°43'0 0.0
2017-Aug-25 04:00N 51°56' E 003°43'0 0.0
2017-Aug-25 03:30N 51°56' E 003°43'0 0.0
2017-Aug-25 03:00N 51°56' E 003°43'0 0.1
2017-Aug-25 02:29N 51°56' E 003°43'0 0.1
2017-Aug-25 02:00N 51°56' E 003°43'0 0.2
2017-Aug-25 01:30N 51°56' E 003°43'0 0.1
2017-Aug-25 01:00N 51°56' E 003°43'0 0.1
2017-Aug-25 00:30N 51°56' E 003°43'0 0.0
2017-Aug-25 00:00N 51°56' E 003°43'0 0.0
2017-Aug-24 23:30N 51°56' E 003°43'0 0.0
2017-Aug-24 23:00N 51°56' E 003°43'0 0.0
2017-Aug-24 22:30N 51°56' E 003°43'0 0.0
2017-Aug-24 22:00N 51°56' E 003°43'0 0.1
2017-Aug-24 21:30N 51°56' E 003°43'0 0.2
2017-Aug-24 21:00N 51°56' E 003°43'0 0.2
2017-Aug-24 20:30N 51°56' E 003°43'0 0.1
2017-Aug-24 20:00N 51°56' E 003°43'1 1.4
2017-Aug-24 19:30N 51°56' E 003°42'611.5
2017-Aug-24 19:00N 51°56' E 003°33'713.1
2017-Aug-24 18:30N 51°54' E 003°22'611.5
2017-Aug-24 17:56N 51°53' E 003°12'512.1
2017-Aug-24 17:30N 51°51' E 003°04'612.4
2017-Aug-24 17:00N 51°49' E 002°54'612.6
2017-Aug-24 16:30N 51°48' E 002°45'612.8
2017-Aug-24 16:00N 51°44' E 002°35'713.5
2017-Aug-24 15:29N 51°39' E 002°28'613.6
2017-Aug-24 15:00N 51°34' E 002°21'713.7
2017-Aug-24 14:30N 51°29' E 002°15'713.2
2017-Aug-24 14:00N 51°22' E 002°11'713.4
2017-Aug-24 13:30N 51°16' E 002°07'713.1
2017-Aug-24 13:00N 51°12' E 001°59'713.2
2017-Aug-24 12:30N 51°09' E 001°50'613.0
2017-Aug-24 12:01N 51°05' E 001°42'611.8
2017-Aug-24 11:30N 51°00' E 001°36'611.3
2017-Aug-24 11:01N 50°56' E 001°29'710.1
2017-Aug-24 10:16N 50°49' E 001°24'72 9.4
2017-Aug-24 02:32N 50°16' W 000°17'0 9.5
2017-Aug-24 02:30N 50°16' W 000°17'5 9.9
2017-Aug-24 01:58N 50°15' W 000°25'510.2
2017-Aug-24 01:30N 50°13' W 000°32'510.7
2017-Aug-24 01:00N 50°12' W 000°40'611.5
2017-Aug-24 00:28N 50°10' W 000°50'612.3
2017-Aug-24 00:00N 50°09' W 000°58'713.3
2017-Aug-23 23:30N 50°07' W 001°08'714.0
2017-Aug-23 23:01N 50°06' W 001°19'714.6
2017-Aug-23 22:30N 50°04' W 001°30'815.2
2017-Aug-23 22:00N 50°01' W 001°41'815.8
2017-Aug-23 21:31N 49°59' W 001°53'815.9
2017-Aug-23 21:00N 49°57' W 002°05'1315.3
2017-Aug-23 20:09N 49°54' W 002°24'214.7
2017-Aug-23 20:00N 49°53' W 002°28'3513.5
2017-Aug-23 17:26N 49°40' W 003°17'713.6
2017-Aug-23 16:55N 49°36' W 003°27'613.5
2017-Aug-23 16:30N 49°33' W 003°34'  

Dump ship's entire track history